sensor_id;sensor_type;location;lat;lon;timestamp;temperature;humidity
33023;DHT22;19390;51.460;5.710;2023-01-15T00:00:50;7.00;99.90
33023;DHT22;19390;51.460;5.710;2023-01-15T00:03:16;7.00;99.90
33023;DHT22;19390;51.460;5.710;2023-01-15T00:05:41;7.00;99.90
33023;DHT22;19390;51.460;5.710;2023-01-15T00:08:07;6.90;99.90
33023;DHT22;19390;51.460;5.710;2023-01-15T00:10:33;6.90;99.90
33023;DHT22;19390;51.460;5.710;2023-01-15T00:12:58;6.90;99.90
33023;DHT22;19390;51.460;5.710;2023-01-15T00:15:24;6.90;99.90
33023;DHT22;19390;51.460;5.710;2023-01-15T00:17:50;6.80;99.90
33023;DHT22;19390;51.460;5.710;2023-01-15T00:20:15;6.80;99.90
33023;DHT22;19390;51.460;5.710;2023-01-15T00:22:41;6.80;99.90
33023;DHT22;19390;51.460;5.710;2023-01-15T00:25:08;6.80;99.90
33023;DHT22;19390;51.460;5.710;2023-01-15T00:27:52;6.80;99.90
33023;DHT22;19390;51.460;5.710;2023-01-15T00:30:17;6.90;99.90
33023;DHT22;19390;51.460;5.710;2023-01-15T00:32:43;6.80;99.90
33023;DHT22;19390;51.460;5.710;2023-01-15T00:35:18;6.80;99.90
33023;DHT22;19390;51.460;5.710;2023-01-15T00:37:43;6.80;99.90
33023;DHT22;19390;51.460;5.710;2023-01-15T00:40:10;6.80;99.90
33023;DHT22;19390;51.460;5.710;2023-01-15T00:42:36;6.90;99.90
33023;DHT22;19390;51.460;5.710;2023-01-15T00:45:02;6.80;99.90
33023;DHT22;19390;51.460;5.710;2023-01-15T00:47:35;6.80;99.90
33023;DHT22;19390;51.460;5.710;2023-01-15T00:50:00;6.80;99.90
33023;DHT22;19390;51.460;5.710;2023-01-15T00:52:26;6.80;99.90
33023;DHT22;19390;51.460;5.710;2023-01-15T00:54:52;6.70;99.90
33023;DHT22;19390;51.460;5.710;2023-01-15T00:57:18;6.70;99.90
33023;DHT22;19390;51.460;5.710;2023-01-15T00:59:44;6.70;99.90
33023;DHT22;19390;51.460;5.710;2023-01-15T01:02:09;6.80;99.90
33023;DHT22;19390;51.460;5.710;2023-01-15T01:04:35;6.70;99.90
33023;DHT22;19390;51.460;5.710;2023-01-15T01:07:00;6.70;99.90
33023;DHT22;19390;51.460;5.710;2023-01-15T01:09:26;6.80;99.90
33023;DHT22;19390;51.460;5.710;2023-01-15T01:11:52;6.80;99.90
33023;DHT22;19390;51.460;5.710;2023-01-15T01:14:17;6.70;99.90
33023;DHT22;19390;51.460;5.710;2023-01-15T01:16:43;6.70;99.90
33023;DHT22;19390;51.460;5.710;2023-01-15T01:19:12;6.60;99.90
33023;DHT22;19390;51.460;5.710;2023-01-15T01:21:38;6.70;99.90
33023;DHT22;19390;51.460;5.710;2023-01-15T01:24:05;6.60;99.90
33023;DHT22;19390;51.460;5.710;2023-01-15T01:26:32;6.50;99.90
33023;DHT22;19390;51.460;5.710;2023-01-15T01:28:58;6.60;99.90
33023;DHT22;19390;51.460;5.710;2023-01-15T01:31:23;6.60;99.90
33023;DHT22;19390;51.460;5.710;2023-01-15T01:33:51;6.50;99.90
33023;DHT22;19390;51.460;5.710;2023-01-15T01:36:17;6.60;99.90
33023;DHT22;19390;51.460;5.710;2023-01-15T01:38:46;6.60;99.90
33023;DHT22;19390;51.460;5.710;2023-01-15T01:41:14;6.70;99.90
33023;DHT22;19390;51.460;5.710;2023-01-15T01:43:59;6.70;99.90
33023;DHT22;19390;51.460;5.710;2023-01-15T01:46:27;6.80;99.90
33023;DHT22;19390;51.460;5.710;2023-01-15T01:49:08;6.70;99.90
33023;DHT22;19390;51.460;5.710;2023-01-15T01:51:40;6.70;99.90
33023;DHT22;19390;51.460;5.710;2023-01-15T01:54:09;6.70;99.90
33023;DHT22;19390;51.460;5.710;2023-01-15T01:56:35;6.90;99.90
33023;DHT22;19390;51.460;5.710;2023-01-15T01:59:02;6.70;99.90
33023;DHT22;19390;51.460;5.710;2023-01-15T02:01:29;6.70;99.90
33023;DHT22;19390;51.460;5.710;2023-01-15T02:03:55;6.80;99.90
33023;DHT22;19390;51.460;5.710;2023-01-15T02:06:23;6.80;99.90
33023;DHT22;19390;51.460;5.710;2023-01-15T02:08:50;6.80;99.90
33023;DHT22;19390;51.460;5.710;2023-01-15T02:11:19;6.80;99.90
33023;DHT22;19390;51.460;5.710;2023-01-15T02:13:59;6.80;99.90
33023;DHT22;19390;51.460;5.710;2023-01-15T02:16:46;6.80;99.90
33023;DHT22;19390;51.460;5.710;2023-01-15T02:24:46;6.90;99.90
33023;DHT22;19390;51.460;5.710;2023-01-15T02:27:18;6.80;99.90
33023;DHT22;19390;51.460;5.710;2023-01-15T02:30:04;6.80;99.90
33023;DHT22;19390;51.460;5.710;2023-01-15T02:32:42;6.80;99.90
33023;DHT22;19390;51.460;5.710;2023-01-15T02:35:19;6.80;99.90
33023;DHT22;19390;51.460;5.710;2023-01-15T02:37:50;6.70;99.90
33023;DHT22;19390;51.460;5.710;2023-01-15T02:40:20;6.70;99.90
33023;DHT22;19390;51.460;5.710;2023-01-15T02:42:48;6.70;99.90
33023;DHT22;19390;51.460;5.710;2023-01-15T02:45:18;6.70;99.90
33023;DHT22;19390;51.460;5.710;2023-01-15T02:47:48;6.80;99.90
33023;DHT22;19390;51.460;5.710;2023-01-15T02:50:20;6.80;99.90
33023;DHT22;19390;51.460;5.710;2023-01-15T02:52:50;6.70;99.90
33023;DHT22;19390;51.460;5.710;2023-01-15T02:55:25;6.70;99.90
33023;DHT22;19390;51.460;5.710;2023-01-15T02:57:55;6.70;99.90
33023;DHT22;19390;51.460;5.710;2023-01-15T03:00:23;6.60;99.90
33023;DHT22;19390;51.460;5.710;2023-01-15T03:03:07;6.70;99.90
33023;DHT22;19390;51.460;5.710;2023-01-15T03:05:50;6.70;99.90
33023;DHT22;19390;51.460;5.710;2023-01-15T03:08:18;6.60;99.90
33023;DHT22;19390;51.460;5.710;2023-01-15T03:11:06;6.60;99.90
33023;DHT22;19390;51.460;5.710;2023-01-15T03:16:15;6.80;99.90
33023;DHT22;19390;51.460;5.710;2023-01-15T03:24:37;6.60;99.90
33023;DHT22;19390;51.460;5.710;2023-01-15T03:27:04;6.60;99.90
33023;DHT22;19390;51.460;5.710;2023-01-15T03:29:40;6.50;99.90
33023;DHT22;19390;51.460;5.710;2023-01-15T03:32:07;6.60;99.90
33023;DHT22;19390;51.460;5.710;2023-01-15T03:34:39;6.50;99.90
33023;DHT22;19390;51.460;5.710;2023-01-15T03:37:06;6.60;99.90
33023;DHT22;19390;51.460;5.710;2023-01-15T03:39:32;6.60;99.90
33023;DHT22;19390;51.460;5.710;2023-01-15T03:45:22;6.70;99.90
33023;DHT22;19390;51.460;5.710;2023-01-15T03:48:00;6.60;99.90
33023;DHT22;19390;51.460;5.710;2023-01-15T03:50:48;6.60;99.90
33023;DHT22;19390;51.460;5.710;2023-01-15T03:53:30;6.70;99.90
33023;DHT22;19390;51.460;5.710;2023-01-15T03:56:17;6.70;99.90
33023;DHT22;19390;51.460;5.710;2023-01-15T03:58:51;6.60;99.90
33023;DHT22;19390;51.460;5.710;2023-01-15T04:01:21;6.50;99.90
33023;DHT22;19390;51.460;5.710;2023-01-15T04:03:48;6.60;99.90
33023;DHT22;19390;51.460;5.710;2023-01-15T04:06:15;6.60;99.90
33023;DHT22;19390;51.460;5.710;2023-01-15T04:08:41;6.60;99.90
33023;DHT22;19390;51.460;5.710;2023-01-15T04:11:08;6.60;99.90
33023;DHT22;19390;51.460;5.710;2023-01-15T04:13:33;6.50;99.90
33023;DHT22;19390;51.460;5.710;2023-01-15T04:15:59;6.60;99.90
33023;DHT22;19390;51.460;5.710;2023-01-15T04:18:25;6.50;99.90
33023;DHT22;19390;51.460;5.710;2023-01-15T04:20:51;6.50;99.90
33023;DHT22;19390;51.460;5.710;2023-01-15T04:23:18;6.70;99.90
33023;DHT22;19390;51.460;5.710;2023-01-15T04:25:43;6.60;99.90
33023;DHT22;19390;51.460;5.710;2023-01-15T04:28:09;6.60;99.90
33023;DHT22;19390;51.460;5.710;2023-01-15T04:30:35;6.70;99.90
33023;DHT22;19390;51.460;5.710;2023-01-15T04:33:01;6.60;99.90
33023;DHT22;19390;51.460;5.710;2023-01-15T04:35:27;6.60;99.90
33023;DHT22;19390;51.460;5.710;2023-01-15T04:37:54;6.70;99.90
33023;DHT22;19390;51.460;5.710;2023-01-15T04:40:20;6.70;99.90
33023;DHT22;19390;51.460;5.710;2023-01-15T04:43:04;6.50;99.90
33023;DHT22;19390;51.460;5.710;2023-01-15T04:45:48;6.60;99.90
33023;DHT22;19390;51.460;5.710;2023-01-15T04:48:14;6.80;99.90
33023;DHT22;19390;51.460;5.710;2023-01-15T04:50:39;6.60;99.90
33023;DHT22;19390;51.460;5.710;2023-01-15T04:53:05;6.60;99.90
33023;DHT22;19390;51.460;5.710;2023-01-15T04:55:31;6.60;99.90
33023;DHT22;19390;51.460;5.710;2023-01-15T04:57:56;6.60;99.90
33023;DHT22;19390;51.460;5.710;2023-01-15T05:00:22;6.70;99.90
33023;DHT22;19390;51.460;5.710;2023-01-15T05:02:48;6.80;99.90
33023;DHT22;19390;51.460;5.710;2023-01-15T05:05:14;6.70;99.90
33023;DHT22;19390;51.460;5.710;2023-01-15T05:07:39;6.70;99.90
33023;DHT22;19390;51.460;5.710;2023-01-15T05:10:06;6.60;99.90
33023;DHT22;19390;51.460;5.710;2023-01-15T05:12:32;6.60;99.90
33023;DHT22;19390;51.460;5.710;2023-01-15T05:14:57;6.70;99.90
33023;DHT22;19390;51.460;5.710;2023-01-15T05:17:23;6.70;99.90
33023;DHT22;19390;51.460;5.710;2023-01-15T05:19:48;6.70;99.90
33023;DHT22;19390;51.460;5.710;2023-01-15T05:22:14;6.70;99.90
33023;DHT22;19390;51.460;5.710;2023-01-15T05:24:39;6.70;99.90
33023;DHT22;19390;51.460;5.710;2023-01-15T05:27:05;6.60;99.90
33023;DHT22;19390;51.460;5.710;2023-01-15T05:29:31;6.60;99.90
33023;DHT22;19390;51.460;5.710;2023-01-15T05:31:57;6.60;99.90
33023;DHT22;19390;51.460;5.710;2023-01-15T05:34:22;6.60;99.90
33023;DHT22;19390;51.460;5.710;2023-01-15T05:36:48;6.70;99.90
33023;DHT22;19390;51.460;5.710;2023-01-15T05:39:13;6.60;99.90
33023;DHT22;19390;51.460;5.710;2023-01-15T05:41:39;6.60;99.90
33023;DHT22;19390;51.460;5.710;2023-01-15T05:44:25;6.60;99.90
33023;DHT22;19390;51.460;5.710;2023-01-15T05:46:57;6.50;99.90
33023;DHT22;19390;51.460;5.710;2023-01-15T05:49:25;6.50;99.90
33023;DHT22;19390;51.460;5.710;2023-01-15T05:51:52;6.50;99.90
33023;DHT22;19390;51.460;5.710;2023-01-15T05:54:20;6.70;99.90
33023;DHT22;19390;51.460;5.710;2023-01-15T05:56:47;6.70;99.90
33023;DHT22;19390;51.460;5.710;2023-01-15T05:59:18;6.70;99.90
33023;DHT22;19390;51.460;5.710;2023-01-15T06:01:44;6.40;99.90
33023;DHT22;19390;51.460;5.710;2023-01-15T06:04:11;6.00;99.90
33023;DHT22;19390;51.460;5.710;2023-01-15T06:06:41;5.90;99.90
33023;DHT22;19390;51.460;5.710;2023-01-15T06:09:07;5.90;99.90
33023;DHT22;19390;51.460;5.710;2023-01-15T06:11:33;5.90;99.90
33023;DHT22;19390;51.460;5.710;2023-01-15T06:13:59;6.00;99.90
33023;DHT22;19390;51.460;5.710;2023-01-15T06:16:25;5.90;99.90
33023;DHT22;19390;51.460;5.710;2023-01-15T06:18:51;6.20;99.90
33023;DHT22;19390;51.460;5.710;2023-01-15T06:21:16;6.20;99.90
33023;DHT22;19390;51.460;5.710;2023-01-15T06:23:42;6.10;99.90
33023;DHT22;19390;51.460;5.710;2023-01-15T06:26:11;6.10;99.90
33023;DHT22;19390;51.460;5.710;2023-01-15T06:28:38;6.30;99.90
33023;DHT22;19390;51.460;5.710;2023-01-15T06:31:05;6.20;99.90
33023;DHT22;19390;51.460;5.710;2023-01-15T06:33:32;6.20;99.90
33023;DHT22;19390;51.460;5.710;2023-01-15T06:35:57;6.20;99.90
33023;DHT22;19390;51.460;5.710;2023-01-15T06:38:23;6.10;99.90
33023;DHT22;19390;51.460;5.710;2023-01-15T06:40:48;6.10;99.90
33023;DHT22;19390;51.460;5.710;2023-01-15T06:43:14;6.00;99.90
33023;DHT22;19390;51.460;5.710;2023-01-15T06:45:58;6.20;99.90
33023;DHT22;19390;51.460;5.710;2023-01-15T06:48:42;6.00;99.90
33023;DHT22;19390;51.460;5.710;2023-01-15T06:51:08;6.00;99.90
33023;DHT22;19390;51.460;5.710;2023-01-15T06:53:33;6.00;99.90
33023;DHT22;19390;51.460;5.710;2023-01-15T06:56:00;5.90;99.90
33023;DHT22;19390;51.460;5.710;2023-01-15T06:58:26;6.10;99.90
33023;DHT22;19390;51.460;5.710;2023-01-15T07:00:51;6.00;99.90
33023;DHT22;19390;51.460;5.710;2023-01-15T07:03:20;6.00;99.90
33023;DHT22;19390;51.460;5.710;2023-01-15T07:05:46;6.10;99.90
33023;DHT22;19390;51.460;5.710;2023-01-15T07:08:12;6.10;99.90
33023;DHT22;19390;51.460;5.710;2023-01-15T07:10:37;6.10;99.90
33023;DHT22;19390;51.460;5.710;2023-01-15T07:13:03;6.00;99.90
33023;DHT22;19390;51.460;5.710;2023-01-15T07:15:28;6.00;99.90
33023;DHT22;19390;51.460;5.710;2023-01-15T07:17:56;5.90;99.90
33023;DHT22;19390;51.460;5.710;2023-01-15T07:20:22;5.90;99.90
33023;DHT22;19390;51.460;5.710;2023-01-15T07:22:49;6.00;99.90
33023;DHT22;19390;51.460;5.710;2023-01-15T07:25:14;6.00;99.90
33023;DHT22;19390;51.460;5.710;2023-01-15T07:27:40;6.00;99.90
33023;DHT22;19390;51.460;5.710;2023-01-15T07:30:06;6.10;99.90
33023;DHT22;19390;51.460;5.710;2023-01-15T07:32:32;6.10;99.90
33023;DHT22;19390;51.460;5.710;2023-01-15T07:34:58;6.00;99.90
33023;DHT22;19390;51.460;5.710;2023-01-15T07:37:23;6.00;99.90
33023;DHT22;19390;51.460;5.710;2023-01-15T07:39:49;6.00;99.90
33023;DHT22;19390;51.460;5.710;2023-01-15T07:42:14;6.10;99.90
33023;DHT22;19390;51.460;5.710;2023-01-15T07:44:59;6.10;99.90
33023;DHT22;19390;51.460;5.710;2023-01-15T07:47:54;6.10;99.90
33023;DHT22;19390;51.460;5.710;2023-01-15T07:50:38;6.00;99.90
33023;DHT22;19390;51.460;5.710;2023-01-15T07:53:04;6.00;99.90
33023;DHT22;19390;51.460;5.710;2023-01-15T07:55:30;5.90;99.90
33023;DHT22;19390;51.460;5.710;2023-01-15T07:57:55;5.80;99.90
33023;DHT22;19390;51.460;5.710;2023-01-15T08:00:23;5.80;99.90
33023;DHT22;19390;51.460;5.710;2023-01-15T08:02:49;5.80;99.90
33023;DHT22;19390;51.460;5.710;2023-01-15T08:05:15;5.80;99.90
33023;DHT22;19390;51.460;5.710;2023-01-15T08:07:41;5.70;99.90
33023;DHT22;19390;51.460;5.710;2023-01-15T08:10:09;5.60;99.90
33023;DHT22;19390;51.460;5.710;2023-01-15T08:12:35;5.60;99.90
33023;DHT22;19390;51.460;5.710;2023-01-15T08:15:19;5.70;99.90
33023;DHT22;19390;51.460;5.710;2023-01-15T08:17:49;5.60;99.90
33023;DHT22;19390;51.460;5.710;2023-01-15T08:20:18;5.60;99.90
33023;DHT22;19390;51.460;5.710;2023-01-15T08:22:44;5.60;99.90
33023;DHT22;19390;51.460;5.710;2023-01-15T08:25:12;5.50;99.90
33023;DHT22;19390;51.460;5.710;2023-01-15T08:27:38;5.60;99.90
33023;DHT22;19390;51.460;5.710;2023-01-15T08:30:06;5.50;99.90
33023;DHT22;19390;51.460;5.710;2023-01-15T08:32:32;5.40;99.90
33023;DHT22;19390;51.460;5.710;2023-01-15T08:34:57;5.30;99.90
33023;DHT22;19390;51.460;5.710;2023-01-15T08:37:23;5.50;99.90
33023;DHT22;19390;51.460;5.710;2023-01-15T08:39:49;6.70;99.90
33023;DHT22;19390;51.460;5.710;2023-01-15T08:42:17;6.30;99.90
33023;DHT22;19390;51.460;5.710;2023-01-15T08:44:43;6.10;99.90
33023;DHT22;19390;51.460;5.710;2023-01-15T08:47:08;6.10;99.90
33023;DHT22;19390;51.460;5.710;2023-01-15T08:49:34;6.00;99.90
33023;DHT22;19390;51.460;5.710;2023-01-15T08:51:59;6.00;99.90
33023;DHT22;19390;51.460;5.710;2023-01-15T08:54:25;5.90;99.90
33023;DHT22;19390;51.460;5.710;2023-01-15T08:56:51;5.90;99.90
33023;DHT22;19390;51.460;5.710;2023-01-15T08:59:17;5.90;99.90
33023;DHT22;19390;51.460;5.710;2023-01-15T09:01:43;5.90;99.90
33023;DHT22;19390;51.460;5.710;2023-01-15T09:04:13;5.90;99.90
33023;DHT22;19390;51.460;5.710;2023-01-15T09:06:40;5.90;99.90
33023;DHT22;19390;51.460;5.710;2023-01-15T09:09:05;5.90;99.90
33023;DHT22;19390;51.460;5.710;2023-01-15T09:11:31;5.90;99.90
33023;DHT22;19390;51.460;5.710;2023-01-15T09:13:56;5.90;99.90
33023;DHT22;19390;51.460;5.710;2023-01-15T09:16:22;6.00;99.90
33023;DHT22;19390;51.460;5.710;2023-01-15T09:18:47;6.00;99.90
33023;DHT22;19390;51.460;5.710;2023-01-15T09:21:13;6.00;99.90
33023;DHT22;19390;51.460;5.710;2023-01-15T09:23:39;6.00;99.90
33023;DHT22;19390;51.460;5.710;2023-01-15T09:26:06;6.00;99.90
33023;DHT22;19390;51.460;5.710;2023-01-15T09:28:33;6.10;99.90
33023;DHT22;19390;51.460;5.710;2023-01-15T09:30:59;6.10;99.90
33023;DHT22;19390;51.460;5.710;2023-01-15T09:33:25;6.10;99.90
33023;DHT22;19390;51.460;5.710;2023-01-15T09:35:51;6.20;99.90
33023;DHT22;19390;51.460;5.710;2023-01-15T09:38:19;6.30;99.90
33023;DHT22;19390;51.460;5.710;2023-01-15T09:40:53;6.40;99.90
33023;DHT22;19390;51.460;5.710;2023-01-15T09:43:47;6.30;99.90
33023;DHT22;19390;51.460;5.710;2023-01-15T09:46:33;6.40;99.90
33023;DHT22;19390;51.460;5.710;2023-01-15T09:54:16;6.90;99.90
33023;DHT22;19390;51.460;5.710;2023-01-15T09:56:46;7.10;99.90
33023;DHT22;19390;51.460;5.710;2023-01-15T09:59:33;7.10;99.90
33023;DHT22;19390;51.460;5.710;2023-01-15T10:02:04;7.30;99.90
33023;DHT22;19390;51.460;5.710;2023-01-15T10:04:42;7.40;99.90
33023;DHT22;19390;51.460;5.710;2023-01-15T10:07:26;7.00;99.90
33023;DHT22;19390;51.460;5.710;2023-01-15T10:10:07;6.80;99.90
33023;DHT22;19390;51.460;5.710;2023-01-15T10:12:35;7.00;99.90
33023;DHT22;19390;51.460;5.710;2023-01-15T10:17:57;7.30;99.90
33023;DHT22;19390;51.460;5.710;2023-01-15T10:25:50;7.30;99.90
33023;DHT22;19390;51.460;5.710;2023-01-15T10:28:27;7.30;99.90
33023;DHT22;19390;51.460;5.710;2023-01-15T10:30:54;7.30;99.90
33023;DHT22;19390;51.460;5.710;2023-01-15T10:44:11;7.30;99.90
33023;DHT22;19390;51.460;5.710;2023-01-15T10:46:40;7.20;99.90
33023;DHT22;19390;51.460;5.710;2023-01-15T10:49:14;7.20;99.90
33023;DHT22;19390;51.460;5.710;2023-01-15T10:51:48;7.10;99.90
33023;DHT22;19390;51.460;5.710;2023-01-15T10:54:21;7.10;99.90
33023;DHT22;19390;51.460;5.710;2023-01-15T10:57:03;7.20;99.90
33023;DHT22;19390;51.460;5.710;2023-01-15T10:59:57;7.30;99.90
33023;DHT22;19390;51.460;5.710;2023-01-15T11:02:31;7.50;99.90
33023;DHT22;19390;51.460;5.710;2023-01-15T11:05:00;7.40;99.90
33023;DHT22;19390;51.460;5.710;2023-01-15T11:07:47;7.20;99.90
33023;DHT22;19390;51.460;5.710;2023-01-15T11:10:17;7.40;99.90
33023;DHT22;19390;51.460;5.710;2023-01-15T11:12:51;7.50;99.90
33023;DHT22;19390;51.460;5.710;2023-01-15T11:15:37;7.60;99.90
33023;DHT22;19390;51.460;5.710;2023-01-15T11:18:26;7.80;99.90
33023;DHT22;19390;51.460;5.710;2023-01-15T11:21:13;7.80;99.90
33023;DHT22;19390;51.460;5.710;2023-01-15T11:23:39;7.60;99.90
33023;DHT22;19390;51.460;5.710;2023-01-15T11:26:05;7.80;99.90
33023;DHT22;19390;51.460;5.710;2023-01-15T11:30:59;7.70;99.90
33023;DHT22;19390;51.460;5.710;2023-01-15T11:33:27;7.50;99.90
33023;DHT22;19390;51.460;5.710;2023-01-15T11:36:00;7.40;99.90
33023;DHT22;19390;51.460;5.710;2023-01-15T11:38:31;7.40;99.90
33023;DHT22;19390;51.460;5.710;2023-01-15T11:41:01;7.50;99.90
33023;DHT22;19390;51.460;5.710;2023-01-15T11:43:30;7.40;99.90
33023;DHT22;19390;51.460;5.710;2023-01-15T11:46:29;7.40;99.90
33023;DHT22;19390;51.460;5.710;2023-01-15T11:49:17;7.50;99.90
33023;DHT22;19390;51.460;5.710;2023-01-15T11:52:04;7.40;99.90
33023;DHT22;19390;51.460;5.710;2023-01-15T11:54:32;7.40;99.90
33023;DHT22;19390;51.460;5.710;2023-01-15T11:57:01;7.30;99.90
33023;DHT22;19390;51.460;5.710;2023-01-15T11:59:27;7.50;99.90
33023;DHT22;19390;51.460;5.710;2023-01-15T12:01:56;7.60;99.90
33023;DHT22;19390;51.460;5.710;2023-01-15T12:04:37;7.60;99.90
33023;DHT22;19390;51.460;5.710;2023-01-15T12:07:04;7.40;99.90
33023;DHT22;19390;51.460;5.710;2023-01-15T12:14:48;7.30;99.90
33023;DHT22;19390;51.460;5.710;2023-01-15T12:17:44;7.20;99.90
33023;DHT22;19390;51.460;5.710;2023-01-15T12:20:33;7.30;99.90
33023;DHT22;19390;51.460;5.710;2023-01-15T12:23:24;7.20;99.90
33023;DHT22;19390;51.460;5.710;2023-01-15T12:32:04;7.20;99.90
33023;DHT22;19390;51.460;5.710;2023-01-15T12:37:01;7.30;99.90
33023;DHT22;19390;51.460;5.710;2023-01-15T12:39:41;7.30;99.90
33023;DHT22;19390;51.460;5.710;2023-01-15T12:42:12;7.30;99.90
33023;DHT22;19390;51.460;5.710;2023-01-15T12:45:02;7.30;99.90
33023;DHT22;19390;51.460;5.710;2023-01-15T12:47:40;7.30;99.90
33023;DHT22;19390;51.460;5.710;2023-01-15T12:50:47;7.20;99.90
33023;DHT22;19390;51.460;5.710;2023-01-15T12:53:22;7.20;99.90
33023;DHT22;19390;51.460;5.710;2023-01-15T13:20:48;7.40;99.90
33023;DHT22;19390;51.460;5.710;2023-01-15T13:23:35;7.50;99.90
33023;DHT22;19390;51.460;5.710;2023-01-15T13:26:26;10.00;99.90
33023;DHT22;19390;51.460;5.710;2023-01-15T13:34:37;7.50;99.90
33023;DHT22;19390;51.460;5.710;2023-01-15T13:40:00;7.60;99.90
33023;DHT22;19390;51.460;5.710;2023-01-15T13:42:28;7.50;99.90
33023;DHT22;19390;51.460;5.710;2023-01-15T13:45:02;7.40;99.90
33023;DHT22;19390;51.460;5.710;2023-01-15T13:47:35;7.40;99.90
33023;DHT22;19390;51.460;5.710;2023-01-15T13:50:16;7.40;99.90
33023;DHT22;19390;51.460;5.710;2023-01-15T13:52:43;7.40;99.90
33023;DHT22;19390;51.460;5.710;2023-01-15T13:57:43;7.30;99.90
33023;DHT22;19390;51.460;5.710;2023-01-15T14:00:33;7.30;99.90
33023;DHT22;19390;51.460;5.710;2023-01-15T14:03:21;7.30;99.90
33023;DHT22;19390;51.460;5.710;2023-01-15T14:05:57;7.30;99.90
33023;DHT22;19390;51.460;5.710;2023-01-15T14:08:35;7.30;99.90
33023;DHT22;19390;51.460;5.710;2023-01-15T14:11:01;7.30;99.90
33023;DHT22;19390;51.460;5.710;2023-01-15T14:13:56;7.40;99.90
33023;DHT22;19390;51.460;5.710;2023-01-15T14:33:45;7.20;99.90
33023;DHT22;19390;51.460;5.710;2023-01-15T14:36:35;7.20;99.90
33023;DHT22;19390;51.460;5.710;2023-01-15T14:39:05;7.10;99.90
33023;DHT22;19390;51.460;5.710;2023-01-15T14:41:35;7.00;99.90
33023;DHT22;19390;51.460;5.710;2023-01-15T14:44:31;7.10;99.90
33023;DHT22;19390;51.460;5.710;2023-01-15T14:47:00;7.20;99.90
33023;DHT22;19390;51.460;5.710;2023-01-15T14:49:57;7.10;99.90
33023;DHT22;19390;51.460;5.710;2023-01-15T14:52:23;7.20;99.90
33023;DHT22;19390;51.460;5.710;2023-01-15T14:54:49;7.20;99.90
33023;DHT22;19390;51.460;5.710;2023-01-15T14:57:16;7.20;99.90
33023;DHT22;19390;51.460;5.710;2023-01-15T14:59:56;7.30;99.90
33023;DHT22;19390;51.460;5.710;2023-01-15T15:02:40;7.30;99.90
33023;DHT22;19390;51.460;5.710;2023-01-15T15:05:18;7.30;99.90
33023;DHT22;19390;51.460;5.710;2023-01-15T15:07:47;7.30;99.90
33023;DHT22;19390;51.460;5.710;2023-01-15T15:10:35;7.30;99.90
33023;DHT22;19390;51.460;5.710;2023-01-15T15:16:16;7.20;99.90
33023;DHT22;19390;51.460;5.710;2023-01-15T15:18:51;7.10;99.90
33023;DHT22;19390;51.460;5.710;2023-01-15T15:21:29;7.10;99.90
33023;DHT22;19390;51.460;5.710;2023-01-15T15:24:06;7.10;99.90
33023;DHT22;19390;51.460;5.710;2023-01-15T15:26:36;7.00;99.90
33023;DHT22;19390;51.460;5.710;2023-01-15T15:31:38;7.00;99.90
33023;DHT22;19390;51.460;5.710;2023-01-15T15:34:06;6.90;99.90
33023;DHT22;19390;51.460;5.710;2023-01-15T15:36:34;7.00;99.90
33023;DHT22;19390;51.460;5.710;2023-01-15T15:39:04;6.90;99.90
33023;DHT22;19390;51.460;5.710;2023-01-15T15:41:40;6.90;99.90
33023;DHT22;19390;51.460;5.710;2023-01-15T15:44:47;6.90;99.90
33023;DHT22;19390;51.460;5.710;2023-01-15T15:47:40;6.90;99.90
33023;DHT22;19390;51.460;5.710;2023-01-15T15:50:30;6.90;99.90
33023;DHT22;19390;51.460;5.710;2023-01-15T15:52:57;6.90;99.90
33023;DHT22;19390;51.460;5.710;2023-01-15T15:55:25;6.80;99.90
33023;DHT22;19390;51.460;5.710;2023-01-15T15:57:56;6.90;99.90
33023;DHT22;19390;51.460;5.710;2023-01-15T16:00:30;6.90;99.90
33023;DHT22;19390;51.460;5.710;2023-01-15T16:03:14;6.80;99.90
33023;DHT22;19390;51.460;5.710;2023-01-15T16:05:40;6.80;99.90
33023;DHT22;19390;51.460;5.710;2023-01-15T16:08:17;6.80;99.90
33023;DHT22;19390;51.460;5.710;2023-01-15T16:10:46;6.70;99.90
33023;DHT22;19390;51.460;5.710;2023-01-15T16:13:21;6.80;99.90
33023;DHT22;19390;51.460;5.710;2023-01-15T16:15:49;6.80;99.90
33023;DHT22;19390;51.460;5.710;2023-01-15T16:18:30;6.70;99.90
33023;DHT22;19390;51.460;5.710;2023-01-15T16:20:57;6.70;99.90
33023;DHT22;19390;51.460;5.710;2023-01-15T16:23:25;6.70;99.90
33023;DHT22;19390;51.460;5.710;2023-01-15T16:26:15;6.60;99.90
33023;DHT22;19390;51.460;5.710;2023-01-15T16:28:50;6.60;99.90
33023;DHT22;19390;51.460;5.710;2023-01-15T16:31:18;6.60;99.90
33023;DHT22;19390;51.460;5.710;2023-01-15T16:33:44;6.60;99.90
33023;DHT22;19390;51.460;5.710;2023-01-15T16:36:11;6.60;99.90
33023;DHT22;19390;51.460;5.710;2023-01-15T16:38:41;6.50;99.90
33023;DHT22;19390;51.460;5.710;2023-01-15T16:41:28;6.50;99.90
33023;DHT22;19390;51.460;5.710;2023-01-15T16:44:04;6.50;99.90
33023;DHT22;19390;51.460;5.710;2023-01-15T16:46:51;6.60;99.90
33023;DHT22;19390;51.460;5.710;2023-01-15T16:51:48;6.60;99.90
33023;DHT22;19390;51.460;5.710;2023-01-15T16:54:41;6.50;99.90
33023;DHT22;19390;51.460;5.710;2023-01-15T16:57:26;6.40;99.90
33023;DHT22;19390;51.460;5.710;2023-01-15T17:00:00;6.40;99.90
33023;DHT22;19390;51.460;5.710;2023-01-15T17:02:32;6.40;99.90
33023;DHT22;19390;51.460;5.710;2023-01-15T17:04:59;6.20;99.90
33023;DHT22;19390;51.460;5.710;2023-01-15T17:09:57;6.10;99.90
33023;DHT22;19390;51.460;5.710;2023-01-15T17:12:32;6.10;99.90
33023;DHT22;19390;51.460;5.710;2023-01-15T17:17:40;6.00;99.90
33023;DHT22;19390;51.460;5.710;2023-01-15T17:20:09;5.90;99.90
33023;DHT22;19390;51.460;5.710;2023-01-15T17:22:35;6.00;99.90
33023;DHT22;19390;51.460;5.710;2023-01-15T17:25:19;6.00;99.90
33023;DHT22;19390;51.460;5.710;2023-01-15T17:27:46;5.90;99.90
33023;DHT22;19390;51.460;5.710;2023-01-15T17:30:12;5.90;99.90
33023;DHT22;19390;51.460;5.710;2023-01-15T17:32:38;6.00;99.90
33023;DHT22;19390;51.460;5.710;2023-01-15T17:35:10;6.00;99.90
33023;DHT22;19390;51.460;5.710;2023-01-15T17:37:40;6.10;99.90
33023;DHT22;19390;51.460;5.710;2023-01-15T17:40:06;6.10;99.90
33023;DHT22;19390;51.460;5.710;2023-01-15T17:42:32;6.20;99.90
33023;DHT22;19390;51.460;5.710;2023-01-15T17:44:57;6.10;99.90
33023;DHT22;19390;51.460;5.710;2023-01-15T17:47:23;6.20;99.90
33023;DHT22;19390;51.460;5.710;2023-01-15T17:49:48;6.20;99.90
33023;DHT22;19390;51.460;5.710;2023-01-15T17:52:18;6.20;99.90
33023;DHT22;19390;51.460;5.710;2023-01-15T17:54:44;6.20;99.90
33023;DHT22;19390;51.460;5.710;2023-01-15T17:57:28;6.20;99.90
33023;DHT22;19390;51.460;5.710;2023-01-15T18:00:12;6.20;99.90
33023;DHT22;19390;51.460;5.710;2023-01-15T18:02:57;6.20;99.90
33023;DHT22;19390;51.460;5.710;2023-01-15T18:05:42;6.20;99.90
33023;DHT22;19390;51.460;5.710;2023-01-15T18:08:09;5.90;99.90
33023;DHT22;19390;51.460;5.710;2023-01-15T18:10:37;5.90;99.90
33023;DHT22;19390;51.460;5.710;2023-01-15T18:13:03;5.80;99.90
33023;DHT22;19390;51.460;5.710;2023-01-15T18:15:32;5.70;99.90